Time;durP1;ratioP1;P1;durP2;ratioP2;P2;SDS_P1;SDS_P2;PMS_P1;PMS_P2;Temp;Humidity;BMP_temperature;BMP_pressure;BME280_temperature;BME280_humidity;BME280_pressure;Samples;Min_cycle;Max_cycle;Signal;HPM_P1;HPM_P2
2022/02/22 00:01:23;;;;;;;24.20;3.30;;;;;;;3.80;79.90;99242.47;5028535;28;20045;-55
2022/02/22 00:03:49;;;;;;;17.90;3.33;;;;;;;3.74;79.52;99256.50;5030796;28;20030;-54
2022/02/22 00:06:14;;;;;;;29.90;3.75;;;;;;;3.81;78.95;99268.75;5027220;28;20041;-52
2022/02/22 00:08:40;;;;;;;21.85;3.15;;;;;;;3.71;79.24;99244.47;5028036;28;20091;-54
2022/02/22 00:11:05;;;;;;;31.60;4.07;;;;;;;3.76;78.63;99254.47;5031673;28;20084;-51
2022/02/22 00:13:31;;;;;;;25.63;4.03;;;;;;;3.71;79.49;99272.81;5031277;28;20033;-54
2022/02/22 00:16:00;;;;;;;23.45;3.25;;;;;;;3.67;79.59;99277.69;5030932;28;20049;-52
2022/02/22 00:18:25;;;;;;;34.70;4.15;;;;;;;3.66;79.77;99268.91;5026326;28;20543;-54
2022/02/22 00:20:50;;;;;;;24.25;3.95;;;;;;;3.74;78.59;99281.16;5033092;28;20052;-55
2022/02/22 00:23:16;;;;;;;24.70;3.67;;;;;;;3.58;79.83;99284.16;5027685;28;20037;-54
2022/02/22 00:25:41;;;;;;;29.48;3.40;;;;;;;3.62;79.15;99293.34;5032754;28;20056;-56
2022/02/22 00:28:07;;;;;;;20.13;3.42;;;;;;;3.53;79.58;99298.00;5044811;28;20340;-54
2022/02/22 00:30:33;;;;;;;27.45;4.15;;;;;;;3.44;80.12;99299.16;5027667;28;20041;-55
2022/02/22 00:32:58;;;;;;;23.85;3.67;;;;;;;3.59;79.65;99301.69;5034628;28;20440;-55
2022/02/22 00:35:24;;;;;;;30.98;3.60;;;;;;;3.58;79.54;99305.34;5027233;28;20080;-55
2022/02/22 00:37:50;;;;;;;21.40;3.40;;;;;;;3.58;80.22;99315.97;5031602;28;20494;-54
2022/02/22 00:40:15;;;;;;;26.92;3.47;;;;;;;3.65;79.65;99316.81;5031303;28;20035;-55
2022/02/22 00:42:41;;;;;;;20.58;3.38;;;;;;;3.63;80.10;99316.19;5029110;28;20518;-54
2022/02/22 00:45:07;;;;;;;31.48;3.65;;;;;;;3.72;79.91;99322.16;5035035;28;20498;-54
2022/02/22 00:47:33;;;;;;;17.80;3.20;;;;;;;3.76;79.71;99334.81;5032083;28;20112;-54
2022/02/22 00:49:58;;;;;;;26.38;3.30;;;;;;;3.80;80.25;99345.88;5032880;28;20039;-54
2022/02/22 00:52:23;;;;;;;23.52;3.92;;;;;;;3.91;79.81;99349.78;5027912;28;20050;-54
2022/02/22 00:54:49;;;;;;;30.40;4.15;;;;;;;3.82;80.44;99354.41;5026473;28;20034;-54
2022/02/22 00:57:14;;;;;;;22.45;3.03;;;;;;;3.86;80.97;99368.94;5027960;28;20045;-55
2022/02/22 00:59:40;;;;;;;26.65;4.10;;;;;;;3.84;80.96;99360.34;5027629;28;20040;-55
2022/02/22 01:02:05;;;;;;;27.10;3.83;;;;;;;3.81;81.23;99374.00;5036394;28;20049;-54
2022/02/22 01:04:30;;;;;;;33.95;3.67;;;;;;;3.91;80.79;99374.47;5028147;28;20051;-54
2022/02/22 01:06:56;;;;;;;33.95;4.18;;;;;;;3.88;80.68;99386.28;5030084;28;20049;-54
2022/02/22 01:09:21;;;;;;;22.40;3.28;;;;;;;3.90;80.57;99388.75;5028767;28;20368;-55
2022/02/22 01:11:47;;;;;;;46.25;4.53;;;;;;;4.04;79.86;99387.81;5036584;28;20095;-55
2022/02/22 01:14:12;;;;;;;28.52;3.45;;;;;;;3.99;80.09;99390.22;5031779;28;20045;-54
2022/02/22 01:16:38;;;;;;;22.48;3.28;;;;;;;3.98;80.04;99385.13;5033565;28;20045;-53
2022/02/22 01:19:03;;;;;;;30.35;4.18;;;;;;;4.06;78.99;99391.06;5039102;28;20036;-53
2022/02/22 01:21:31;;;;;;;33.08;3.60;;;;;;;3.94;79.75;99384.69;5030280;28;20045;-54
2022/02/22 01:23:57;;;;;;;35.08;4.35;;;;;;;3.90;79.29;99394.06;5030918;28;20166;-54
2022/02/22 01:26:24;;;;;;;31.92;3.85;;;;;;;3.93;79.18;99393.66;5034120;28;20049;-54
2022/02/22 01:28:49;;;;;;;25.15;3.40;;;;;;;3.79;79.66;99413.16;5037563;28;20025;-55
2022/02/22 01:31:15;;;;;;;29.10;4.03;;;;;;;3.81;79.94;99416.44;5043674;28;20038;-54
2022/02/22 01:33:40;;;;;;;34.42;3.67;;;;;;;3.80;80.17;99409.50;5033372;28;20034;-55
2022/02/22 01:36:05;;;;;;;43.95;4.63;;;;;;;3.83;80.39;99411.75;5029348;28;20136;-54
2022/02/22 01:38:31;;;;;;;34.28;4.88;;;;;;;3.85;80.08;99405.25;5031329;28;20144;-54
2022/02/22 01:40:57;;;;;;;30.13;4.28;;;;;;;3.89;79.78;99409.16;5030405;28;20073;-55
2022/02/22 01:43:23;;;;;;;22.15;3.80;;;;;;;3.89;80.36;99406.50;5029252;28;20142;-54
2022/02/22 01:45:49;;;;;;;29.83;3.65;;;;;;;3.89;80.40;99413.63;5034415;28;20049;-54
2022/02/22 01:48:14;;;;;;;32.13;5.38;;;;;;;3.90;80.93;99399.34;5035447;28;20040;-55
2022/02/22 01:50:39;;;;;;;32.40;5.20;;;;;;;3.88;80.66;99404.03;5028681;28;20049;-53
2022/02/22 01:53:05;;;;;;;34.55;4.72;;;;;;;3.82;81.10;99408.28;5029656;28;20036;-54
2022/02/22 01:55:32;;;;;;;39.92;4.22;;;;;;;3.85;81.16;99407.09;5038960;28;20045;-54
2022/02/22 01:57:58;;;;;;;32.20;4.55;;;;;;;3.78;80.90;99409.69;5031482;28;20018;-55
2022/02/22 02:00:26;;;;;;;37.70;4.70;;;;;;;3.79;81.39;99423.75;5032403;28;20041;-54
2022/02/22 02:02:52;;;;;;;33.78;4.47;;;;;;;3.74;81.42;99415.56;5032244;28;20026;-54
2022/02/22 02:05:18;;;;;;;34.42;3.78;;;;;;;3.72;81.45;99420.22;5036493;28;20028;-54
2022/02/22 02:07:43;;;;;;;32.03;4.90;;;;;;;3.72;81.66;99434.31;5029642;28;20336;-54
2022/02/22 02:10:09;;;;;;;30.60;4.20;;;;;;;3.65;81.98;99447.53;5021986;28;20033;-53
2022/02/22 02:12:38;;;;;;;47.00;5.55;;;;;;;3.65;82.08;99438.75;5029621;28;20109;-54
2022/02/22 02:15:04;;;;;;;42.85;4.47;;;;;;;3.68;81.67;99447.13;5029803;28;20400;-52
2022/02/22 02:17:31;;;;;;;38.40;5.55;;;;;;;3.77;80.98;99436.38;5031744;28;20044;-53
2022/02/22 02:19:57;;;;;;;35.42;4.20;;;;;;;3.74;81.07;99439.41;5034394;28;20036;-54
2022/02/22 02:22:22;;;;;;;35.58;5.57;;;;;;;3.66;81.53;99450.97;5029046;28;20041;-55
2022/02/22 02:24:48;;;;;;;30.67;3.97;;;;;;;3.68;81.41;99460.38;5029243;28;20048;-54
2022/02/22 02:27:13;;;;;;;27.02;4.18;;;;;;;3.67;81.92;99457.94;5029200;28;20092;-54
2022/02/22 02:29:42;;;;;;;45.20;5.38;;;;;;;3.71;81.16;99469.78;5029619;28;20029;-54
2022/02/22 02:32:08;;;;;;;37.97;4.25;;;;;;;3.68;81.40;99470.19;5028502;28;20530;-53
2022/02/22 02:34:33;;;;;;;31.63;4.43;;;;;;;3.72;80.73;99470.59;5033045;28;20029;-54
2022/02/22 02:36:59;;;;;;;29.77;4.20;;;;;;;3.74;80.21;99476.53;5034272;28;20110;-53
2022/02/22 02:39:24;;;;;;;35.53;3.85;;;;;;;3.70;80.68;99470.81;5035875;28;20077;-56
2022/02/22 02:41:50;;;;;;;32.70;3.92;;;;;;;3.69;80.49;99477.09;5037995;28;20072;-53
2022/02/22 02:44:17;;;;;;;37.03;4.25;;;;;;;3.66;80.36;99494.22;5034991;28;20057;-57
2022/02/22 02:46:45;;;;;;;25.48;3.88;;;;;;;3.70;80.18;99491.19;5036505;28;20119;-55
2022/02/22 02:49:11;;;;;;;33.10;4.93;;;;;;;3.67;79.87;99501.19;5028610;28;20202;-53
2022/02/22 02:51:36;;;;;;;34.92;4.68;;;;;;;3.66;80.07;99501.34;5031612;28;20474;-53
2022/02/22 02:54:02;;;;;;;27.40;4.53;;;;;;;3.66;79.39;99494.22;5033703;28;20110;-54
2022/02/22 02:56:27;;;;;;;45.92;4.65;;;;;;;3.60;80.07;99499.47;5035663;28;20056;-56
2022/02/22 02:58:57;;;;;;;45.70;5.53;;;;;;;3.57;80.56;99500.69;5034308;28;20034;-56
2022/02/22 03:01:23;;;;;;;35.60;5.20;;;;;;;3.57;80.09;99507.78;5027315;28;20037;-55
2022/02/22 03:03:48;;;;;;;29.55;4.13;;;;;;;3.56;80.20;99509.63;5034382;28;20763;-55
2022/02/22 03:06:14;;;;;;;28.35;4.75;;;;;;;3.48;79.80;99519.53;5035324;28;20404;-55
2022/02/22 03:08:39;;;;;;;31.58;4.70;;;;;;;3.40;80.03;99510.72;5030632;28;20455;-56
2022/02/22 03:11:05;;;;;;;37.83;4.72;;;;;;;3.35;80.50;99523.69;5028232;28;20057;-53
2022/02/22 03:13:30;;;;;;;26.80;4.75;;;;;;;3.31;81.05;99525.06;5036054;28;20037;-54
2022/02/22 03:15:55;;;;;;;33.45;4.93;;;;;;;3.32;81.49;99536.50;5028467;28;20045;-54
2022/02/22 03:18:21;;;;;;;36.17;4.63;;;;;;;3.28;81.20;99545.84;5030641;28;20025;-56
2022/02/22 03:20:46;;;;;;;31.10;4.43;;;;;;;3.39;79.92;99532.09;5027137;28;20506;-57
2022/02/22 03:23:12;;;;;;;36.85;4.60;;;;;;;3.43;79.72;99541.31;5027208;28;20074;-55
2022/02/22 03:25:37;;;;;;;42.42;4.65;;;;;;;3.38;80.15;99522.50;5033511;28;20045;-56
2022/02/22 03:28:06;;;;;;;22.48;5.15;;;;;;;3.33;80.96;99524.91;5031875;28;20033;-56
2022/02/22 03:30:32;;;;;;;41.47;4.57;;;;;;;3.31;80.79;99526.91;5029583;28;20045;-55
2022/02/22 03:32:58;;;;;;;38.28;5.50;;;;;;;3.30;80.80;99523.44;5011439;28;20030;-52
2022/02/22 03:35:23;;;;;;;33.30;5.15;;;;;;;3.39;79.67;99524.13;5036539;28;20041;-55
2022/02/22 03:37:49;;;;;;;31.83;4.35;;;;;;;3.43;79.67;99531.53;5034723;28;20111;-52
2022/02/22 03:40:14;;;;;;;28.77;4.43;;;;;;;3.45;79.41;99539.28;5027982;28;20037;-53
2022/02/22 03:42:41;;;;;;;38.38;4.60;;;;;;;3.48;79.43;99541.56;5030446;28;20030;-55
2022/02/22 03:45:10;;;;;;;28.40;4.50;;;;;;;3.48;80.05;99562.75;5029072;28;20045;-55
2022/02/22 03:47:36;;;;;;;24.23;3.78;;;;;;;3.43;80.22;99558.03;5030892;28;20032;-55
2022/02/22 03:50:02;;;;;;;39.33;4.70;;;;;;;3.45;80.61;99550.72;5027979;28;20030;-53
2022/02/22 03:52:27;;;;;;;32.80;4.85;;;;;;;3.47;80.78;99561.13;5032409;28;20056;-54
2022/02/22 03:54:52;;;;;;;42.70;5.65;;;;;;;3.50;79.26;99550.16;5034694;28;20052;-53
2022/02/22 03:57:18;;;;;;;31.10;4.20;;;;;;;3.49;79.16;99553.78;5025480;28;20462;-54
2022/02/22 03:59:43;;;;;;;33.67;5.10;;;;;;;3.45;79.12;99555.19;5028083;28;20036;-53
2022/02/22 04:02:09;;;;;;;31.55;4.28;;;;;;;3.47;78.99;99555.84;5028312;28;20052;-54
2022/02/22 04:04:34;;;;;;;29.27;4.90;;;;;;;3.42;79.55;99560.84;5027460;28;20049;-51
2022/02/22 04:06:59;;;;;;;38.63;4.88;;;;;;;3.33;79.58;99568.09;5027497;28;20037;-53
2022/02/22 04:09:25;;;;;;;34.78;4.50;;;;;;;3.31;79.86;99558.69;5031862;28;20443;-52
2022/02/22 04:11:50;;;;;;;36.42;5.85;;;;;;;3.24;80.02;99559.47;5034152;28;20048;-54
2022/02/22 04:14:15;;;;;;;32.83;4.35;;;;;;;3.24;80.14;99562.13;5037814;28;20028;-53
2022/02/22 04:16:41;;;;;;;49.47;5.18;;;;;;;3.24;80.00;99570.06;5034212;28;20415;-51
2022/02/22 04:19:07;;;;;;;36.95;4.60;;;;;;;3.23;79.96;99579.00;5028152;28;20025;-53
2022/02/22 04:21:33;;;;;;;33.75;5.95;;;;;;;3.21;81.04;99586.31;5027367;28;20037;-54
2022/02/22 04:23:58;;;;;;;38.60;4.85;;;;;;;3.19;80.14;99587.50;5031016;28;20919;-53
2022/02/22 04:26:23;;;;;;;34.90;4.72;;;;;;;3.20;80.27;99591.81;5030234;28;20037;-54
2022/02/22 04:28:49;;;;;;;48.22;6.28;;;;;;;3.24;79.91;99591.25;5036386;28;20475;-53
2022/02/22 04:31:14;;;;;;;40.30;4.78;;;;;;;3.20;79.83;99586.50;5030285;28;20049;-54
2022/02/22 04:33:40;;;;;;;39.35;4.85;;;;;;;3.20;79.96;99589.97;5036224;28;20049;-53
2022/02/22 04:36:05;;;;;;;37.45;5.38;;;;;;;3.14;80.09;99590.69;5026653;28;20054;-53
2022/02/22 04:38:31;;;;;;;28.63;4.63;;;;;;;3.12;80.72;99592.72;5026057;28;20033;-54
2022/02/22 04:40:56;;;;;;;53.08;6.13;;;;;;;3.06;80.89;99596.09;5027407;28;20042;-54
2022/02/22 04:43:22;;;;;;;40.45;5.25;;;;;;;3.09;80.51;99608.16;5037592;28;20399;-52
2022/02/22 04:45:47;;;;;;;33.25;4.82;;;;;;;3.08;80.14;99599.41;5032242;28;20403;-55
2022/02/22 04:48:12;;;;;;;40.13;4.57;;;;;;;3.13;80.75;99598.84;5029929;28;20025;-54
2022/02/22 04:50:39;;;;;;;37.83;6.05;;;;;;;3.08;80.71;99596.75;5033907;28;20041;-53
2022/02/22 04:53:05;;;;;;;29.00;4.10;;;;;;;3.03;80.91;99601.78;5030424;28;20076;-54
2022/02/22 04:55:30;;;;;;;32.72;4.68;;;;;;;3.01;81.16;99593.19;5034195;28;20048;-54
2022/02/22 04:57:56;;;;;;;34.88;5.47;;;;;;;3.03;80.73;99584.06;5035686;28;20034;-54
2022/02/22 05:00:21;;;;;;;21.30;4.32;;;;;;;3.06;80.18;99596.09;5040386;28;20046;-54
2022/02/22 05:02:47;;;;;;;39.47;4.30;;;;;;;3.02;80.60;99600.13;5035183;28;20122;-54
2022/02/22 05:05:12;;;;;;;45.17;4.75;;;;;;;3.00;80.66;99605.63;5032926;28;20098;-54
2022/02/22 05:07:38;;;;;;;33.75;4.65;;;;;;;2.99;80.61;99609.25;5040699;28;20029;-54
2022/02/22 05:10:04;;;;;;;38.60;4.68;;;;;;;2.99;80.33;99603.13;5037816;28;20029;-54
2022/02/22 05:12:29;;;;;;;36.83;4.93;;;;;;;3.08;79.49;99607.34;5035395;28;20216;-53
2022/02/22 05:14:54;;;;;;;31.20;3.97;;;;;;;3.03;79.66;99604.44;5030549;28;20407;-52
2022/02/22 05:17:20;;;;;;;32.90;4.35;;;;;;;3.04;79.46;99619.31;5034000;28;20495;-54
2022/02/22 05:19:45;;;;;;;26.65;4.13;;;;;;;3.12;79.47;99616.56;5028640;28;20040;-54
2022/02/22 05:22:11;;;;;;;39.50;5.38;;;;;;;3.12;79.58;99621.03;5035152;28;20041;-53
2022/02/22 05:24:36;;;;;;;28.92;3.97;;;;;;;3.11;79.77;99622.84;5039105;28;20098;-54
2022/02/22 05:27:02;;;;;;;32.97;4.20;;;;;;;3.06;79.61;99625.25;5031255;28;20059;-54
2022/02/22 05:29:27;;;;;;;33.72;4.45;;;;;;;3.03;80.00;99625.63;5034312;28;20212;-52
2022/02/22 05:31:53;;;;;;;35.45;5.38;;;;;;;3.01;80.29;99627.63;5029563;28;20084;-54
2022/02/22 05:34:18;;;;;;;27.60;4.28;;;;;;;2.85;80.78;99622.53;5030458;28;20037;-53
2022/02/22 05:36:44;;;;;;;24.48;4.18;;;;;;;2.81;80.82;99625.50;5030919;28;20054;-53
2022/02/22 05:39:09;;;;;;;31.15;4.35;;;;;;;2.81;81.34;99638.75;5028525;28;20439;-53
2022/02/22 05:41:35;;;;;;;36.08;5.28;;;;;;;2.84;80.87;99636.75;5038166;28;20049;-51
2022/02/22 05:44:00;;;;;;;29.33;5.13;;;;;;;2.87;80.95;99647.81;5033323;28;20114;-52
2022/02/22 05:46:26;;;;;;;23.98;4.93;;;;;;;2.94;80.62;99653.19;5035873;28;20068;-54
2022/02/22 05:48:51;;;;;;;29.27;4.72;;;;;;;2.95;80.44;99660.94;5039114;28;20541;-56
2022/02/22 05:51:17;;;;;;;37.00;4.80;;;;;;;2.81;80.88;99652.00;5034653;28;20052;-51
2022/02/22 05:53:42;;;;;;;23.27;3.88;;;;;;;2.80;80.85;99658.28;5031412;28;20399;-55
2022/02/22 05:56:08;;;;;;;23.88;4.53;;;;;;;2.68;81.54;99665.03;5030472;28;20491;-53
2022/02/22 05:58:33;;;;;;;33.05;5.32;;;;;;;2.56;82.10;99666.47;5035453;28;20020;-53
2022/02/22 06:00:59;;;;;;;42.47;5.72;;;;;;;2.48;82.66;99669.19;5028391;28;20051;-54
2022/02/22 06:03:24;;;;;;;33.08;4.47;;;;;;;2.43;83.26;99679.50;5034414;28;20392;-53
2022/02/22 06:05:49;;;;;;;38.47;4.25;;;;;;;2.32;82.99;99681.56;5036067;28;20191;-53
2022/02/22 06:08:15;;;;;;;18.55;3.90;;;;;;;2.31;82.44;99681.75;5040716;28;20022;-54
2022/02/22 06:10:40;;;;;;;30.17;4.38;;;;;;;2.26;83.52;99679.63;5031354;28;20044;-53
2022/02/22 06:13:06;;;;;;;22.15;4.30;;;;;;;2.23;83.35;99682.63;5034052;28;20383;-54
2022/02/22 06:15:31;;;;;;;26.92;4.10;;;;;;;2.19;83.26;99686.63;5030753;28;20057;-54
2022/02/22 06:17:56;;;;;;;26.23;4.30;;;;;;;2.16;83.78;99692.25;5036335;28;20146;-54
2022/02/22 06:20:22;;;;;;;27.33;3.88;;;;;;;2.19;83.33;99697.19;5032432;28;20041;-54
2022/02/22 06:22:48;;;;;;;14.55;3.92;;;;;;;2.20;83.09;99696.22;5034248;28;20471;-54
2022/02/22 06:25:13;;;;;;;26.98;3.80;;;;;;;2.17;83.31;99709.75;5033202;28;20040;-54
2022/02/22 06:27:46;;;;;;;28.92;4.90;;;;;;;2.09;83.38;99707.19;5029975;28;20160;-54
2022/02/22 06:30:11;;;;;;;26.88;4.63;;;;;;;2.07;83.64;99714.47;5037224;28;20025;-54
2022/02/22 06:32:37;;;;;;;30.42;4.55;;;;;;;2.01;83.98;99721.28;5036305;28;20052;-53
2022/02/22 06:35:02;;;;;;;35.00;4.03;;;;;;;2.00;83.67;99713.50;5035138;28;20025;-54
2022/02/22 06:37:28;;;;;;;33.95;3.72;;;;;;;2.13;83.96;99727.00;5034046;28;20018;-53
2022/02/22 06:39:53;;;;;;;27.88;4.10;;;;;;;2.08;83.44;99737.28;5035533;28;20368;-57
2022/02/22 06:42:19;;;;;;;22.30;3.90;;;;;;;2.09;83.70;99745.03;5032158;28;20033;-55
2022/02/22 06:44:44;;;;;;;33.85;4.10;;;;;;;2.07;83.61;99730.34;5037023;28;20091;-55
2022/02/22 06:47:10;;;;;;;19.05;3.90;;;;;;;2.06;83.51;99736.63;5033739;28;20377;-55
2022/02/22 06:49:35;;;;;;;29.60;4.78;;;;;;;2.06;83.62;99744.56;5031204;28;20075;-52
2022/02/22 06:52:00;;;;;;;26.92;4.25;;;;;;;2.15;83.11;99746.16;5035149;28;20037;-55
2022/02/22 06:54:26;;;;;;;26.45;4.35;;;;;;;2.28;82.86;99743.75;5032461;28;20052;-56
2022/02/22 06:56:51;;;;;;;29.45;5.18;;;;;;;2.34;82.60;99743.03;5031827;28;20041;-56
2022/02/22 06:59:17;;;;;;;22.02;3.50;;;;;;;2.46;82.42;99750.56;5033274;28;20106;-55
2022/02/22 07:01:43;;;;;;;28.67;4.43;;;;;;;2.46;81.97;99753.22;5031950;28;20502;-56
2022/02/22 07:04:09;;;;;;;35.72;5.22;;;;;;;2.42;81.92;99755.41;5028425;28;20036;-55
2022/02/22 07:06:35;;;;;;;30.70;4.43;;;;;;;2.49;81.65;99751.03;5035292;28;20033;-55
2022/02/22 07:09:00;;;;;;;29.85;4.50;;;;;;;2.73;80.59;99763.25;5035550;28;20018;-56
2022/02/22 07:11:25;;;;;;;27.95;4.28;;;;;;;2.56;81.01;99761.75;5029165;28;20038;-55
2022/02/22 07:13:51;;;;;;;24.27;4.07;;;;;;;2.47;81.73;99760.16;5032074;28;20483;-55
2022/02/22 07:16:16;;;;;;;28.27;4.18;;;;;;;2.28;82.93;99753.53;5033313;28;20037;-55
2022/02/22 07:18:43;;;;;;;33.13;4.35;;;;;;;2.43;83.17;99762.34;5031054;28;20028;-56
2022/02/22 07:21:09;;;;;;;26.33;4.25;;;;;;;2.56;82.00;99774.97;5028729;28;20038;-56
2022/02/22 07:23:34;;;;;;;27.98;4.40;;;;;;;2.77;81.49;99764.56;5032571;28;20040;-54
2022/02/22 07:25:59;;;;;;;24.42;4.38;;;;;;;2.91;81.30;99770.06;5039549;28;20072;-55
2022/02/22 07:28:25;;;;;;;35.03;5.03;;;;;;;3.03;81.00;99771.28;5035796;28;20026;-56
2022/02/22 07:30:50;;;;;;;28.15;3.85;;;;;;;3.07;81.05;99769.91;5032262;28;20049;-55
2022/02/22 07:33:16;;;;;;;26.55;4.38;;;;;;;3.17;80.92;99769.63;5026725;28;20033;-55
2022/02/22 07:35:41;;;;;;;27.35;5.00;;;;;;;3.24;80.35;99771.41;5031856;28;20049;-56
2022/02/22 07:38:06;;;;;;;21.70;4.20;;;;;;;3.15;80.72;99769.81;5032463;28;20052;-55
2022/02/22 07:40:32;;;;;;;31.17;4.82;;;;;;;3.18;80.98;99774.75;5034210;28;20041;-55
2022/02/22 07:42:58;;;;;;;32.85;5.20;;;;;;;3.14;81.09;99770.00;5029712;28;20496;-55
2022/02/22 07:45:23;;;;;;;22.67;5.38;;;;;;;3.24;80.83;99779.34;5032868;28;20049;-56
2022/02/22 07:47:49;;;;;;;41.47;5.03;;;;;;;3.35;80.79;99777.25;5028596;28;20033;-56
2022/02/22 07:50:14;;;;;;;33.33;5.30;;;;;;;3.41;80.71;99784.47;5033171;28;20043;-56
2022/02/22 07:52:39;;;;;;;22.40;4.30;;;;;;;3.39;80.50;99787.28;5027476;28;20041;-53
2022/02/22 07:55:06;;;;;;;25.08;4.22;;;;;;;3.59;80.06;99784.91;5032484;28;20037;-54
2022/02/22 07:57:31;;;;;;;25.60;4.90;;;;;;;3.87;79.00;99787.72;5030800;28;20508;-54
2022/02/22 07:59:57;;;;;;;30.15;5.13;;;;;;;4.20;77.84;99784.66;5033110;28;20021;-54
2022/02/22 08:02:22;;;;;;;33.42;5.00;;;;;;;4.58;75.64;99789.72;5027385;28;20502;-53
2022/02/22 08:04:48;;;;;;;39.92;6.57;;;;;;;4.59;75.77;99795.84;5032022;28;20074;-54
2022/02/22 08:07:14;;;;;;;31.48;4.93;;;;;;;4.49;76.84;99797.00;5028260;28;20421;-53
2022/02/22 08:09:39;;;;;;;29.73;4.80;;;;;;;4.70;76.39;99798.81;5030880;28;20484;-53
2022/02/22 08:12:05;;;;;;;23.73;4.95;;;;;;;5.12;74.55;99802.47;5028129;28;20041;-54
2022/02/22 08:14:31;;;;;;;33.05;5.28;;;;;;;6.98;68.99;99797.06;5035528;28;20044;-54
2022/02/22 08:16:59;;;;;;;28.88;5.10;;;;;;;5.37;73.07;99786.88;5033722;28;20520;-53
2022/02/22 08:19:25;;;;;;;22.80;4.60;;;;;;;5.27;74.92;99807.69;5026781;28;20025;-54
2022/02/22 08:21:51;;;;;;;31.80;4.80;;;;;;;4.85;76.09;99804.06;5027461;28;20053;-53
2022/02/22 08:24:16;;;;;;;36.15;6.28;;;;;;;4.85;76.86;99796.09;5038364;28;20025;-54
2022/02/22 08:26:42;;;;;;;27.65;4.43;;;;;;;4.85;76.96;99798.75;5037561;28;20495;-54
2022/02/22 08:29:07;;;;;;;31.08;4.68;;;;;;;4.78;77.53;99792.56;5036338;28;20395;-53
2022/02/22 08:31:33;;;;;;;30.20;5.50;;;;;;;4.90;77.51;99808.81;5035700;28;20041;-54
2022/02/22 08:33:58;;;;;;;26.63;4.60;;;;;;;4.80;77.96;99809.13;5037754;28;20533;-54
2022/02/22 08:36:25;;;;;;;32.20;5.32;;;;;;;4.80;77.99;99801.16;5032106;28;20064;-53
2022/02/22 08:38:51;;;;;;;24.20;4.43;;;;;;;4.93;77.65;99795.97;5040255;28;20383;-54
2022/02/22 08:41:17;;;;;;;29.05;5.00;;;;;;;4.96;77.80;99794.75;5035678;28;20452;-54
2022/02/22 08:43:42;;;;;;;23.60;5.22;;;;;;;4.88;77.99;99811.66;5032707;28;20061;-54
2022/02/22 08:46:08;;;;;;;24.15;4.65;;;;;;;4.85;78.25;99800.59;5029748;28;20041;-54
2022/02/22 08:48:33;;;;;;;32.38;5.43;;;;;;;4.76;78.84;99799.91;5031232;28;20029;-54
2022/02/22 08:50:59;;;;;;;26.27;4.50;;;;;;;4.71;78.77;99789.03;5031428;28;20072;-54
2022/02/22 08:53:24;;;;;;;30.08;5.47;;;;;;;4.72;78.95;99796.00;5031328;28;20110;-53
2022/02/22 08:55:49;;;;;;;24.50;4.75;;;;;;;4.89;78.86;99791.22;5038050;28;20412;-53
2022/02/22 08:58:15;;;;;;;26.13;4.65;;;;;;;5.08;78.11;99795.06;5033245;28;20029;-54
2022/02/22 09:00:41;;;;;;;16.90;4.50;;;;;;;5.06;77.78;99794.44;5033189;28;20049;-56
2022/02/22 09:03:06;;;;;;;26.83;5.10;;;;;;;5.20;77.80;99785.53;5030676;28;20391;-53
2022/02/22 09:05:33;;;;;;;30.02;5.38;;;;;;;5.32;76.91;99778.69;5030452;28;20049;-56
2022/02/22 09:07:58;;;;;;;27.23;5.13;;;;;;;5.31;77.35;99782.34;5035179;28;20757;-54
2022/02/22 09:10:24;;;;;;;20.83;5.65;;;;;;;5.26;77.01;99778.63;5040156;28;20106;-54
2022/02/22 09:12:49;;;;;;;31.95;5.40;;;;;;;5.46;76.47;99773.44;5038496;28;20040;-54
2022/02/22 09:15:16;;;;;;;20.17;5.30;;;;;;;5.77;75.43;99776.47;5035445;28;20256;-54
2022/02/22 09:17:42;;;;;;;20.38;5.00;;;;;;;6.79;71.81;99766.72;5035211;28;20503;-55
2022/02/22 09:20:08;;;;;;;28.67;5.78;;;;;;;7.02;70.55;99771.63;5031069;28;20041;-54
2022/02/22 09:22:37;;;;;;;20.98;5.03;;;;;;;7.40;69.06;99760.31;5034875;28;20464;-54
2022/02/22 09:25:03;;;;;;;21.55;4.82;;;;;;;7.90;66.54;99771.22;5030368;28;20029;-55
2022/02/22 09:27:29;;;;;;;19.70;4.72;;;;;;;7.99;65.97;99769.97;5042939;28;20107;-56
2022/02/22 09:29:54;;;;;;;15.80;4.55;;;;;;;8.67;64.10;99768.56;5039335;28;20033;-53
2022/02/22 09:32:20;;;;;;;23.85;4.60;;;;;;;8.95;62.68;99770.00;5034821;28;20041;-53
2022/02/22 09:34:45;;;;;;;16.65;4.22;;;;;;;8.38;63.97;99762.75;5035480;28;20091;-55
2022/02/22 09:37:11;;;;;;;19.23;4.45;;;;;;;8.49;64.46;99765.84;5033178;28;20095;-52
2022/02/22 09:39:38;;;;;;;24.83;5.60;;;;;;;8.72;63.67;99766.06;5031603;28;20478;-50
2022/02/22 09:42:07;;;;;;;18.50;4.55;;;;;;;8.56;64.14;99766.59;5028946;28;20037;-55
2022/02/22 09:44:33;;;;;;;22.27;5.55;;;;;;;8.48;64.61;99766.84;5034950;28;20048;-56
2022/02/22 09:46:58;;;;;;;23.15;5.13;;;;;;;8.67;64.49;99759.75;5034018;28;20468;-57
2022/02/22 09:49:24;;;;;;;20.90;5.93;;;;;;;9.41;62.57;99774.09;5028749;28;20479;-55
2022/02/22 09:51:53;;;;;;;24.88;5.43;;;;;;;8.57;64.02;99765.56;5033256;28;20403;-54
2022/02/22 09:54:19;;;;;;;20.92;5.32;;;;;;;8.77;63.74;99765.41;5038450;28;20041;-53
2022/02/22 09:56:44;;;;;;;20.85;4.50;;;;;;;8.94;64.25;99757.69;5038095;28;20398;-53
2022/02/22 09:59:10;;;;;;;23.33;5.10;;;;;;;8.80;64.61;99746.28;5033762;28;20024;-55
2022/02/22 10:01:44;;;;;;;21.63;4.20;;;;;;;8.57;64.98;99746.88;5028150;28;20048;-54
2022/02/22 10:04:09;;;;;;;22.83;4.32;;;;;;;8.62;63.52;99744.34;5029273;28;20033;-54
2022/02/22 10:06:35;;;;;;;18.30;4.78;;;;;;;8.89;64.34;99744.16;5030139;28;20033;-54
2022/02/22 10:09:00;;;;;;;26.33;4.70;;;;;;;8.41;66.85;99735.69;5029469;28;20021;-54
2022/02/22 10:11:26;;;;;;;16.85;5.10;;;;;;;8.22;69.33;99736.56;5036678;28;20519;-54
2022/02/22 10:13:51;;;;;;;21.27;5.07;;;;;;;7.95;70.35;99739.38;5033302;28;20432;-54
2022/02/22 10:16:17;;;;;;;19.85;4.55;;;;;;;7.52;71.55;99736.47;5033712;28;20038;-54
2022/02/22 10:18:49;;;;;;;21.33;4.70;;;;;;;6.91;74.04;99734.94;5029746;28;20036;-53
2022/02/22 10:21:15;;;;;;;29.48;5.03;;;;;;;7.00;74.46;99723.03;5027862;28;20073;-53
2022/02/22 10:23:40;;;;;;;24.77;4.80;;;;;;;6.90;75.97;99733.31;5030404;28;20119;-53
2022/02/22 10:26:06;;;;;;;22.73;4.95;;;;;;;6.69;76.81;99719.19;5030578;28;20033;-56
2022/02/22 10:28:31;;;;;;;16.10;3.97;;;;;;;6.92;76.90;99707.28;5035763;28;20029;-53
2022/02/22 10:30:57;;;;;;;23.00;4.55;;;;;;;6.74;76.02;99710.56;5033587;28;20040;-54
2022/02/22 10:33:28;;;;;;;22.38;4.85;;;;;;;6.86;73.76;99694.75;5034987;28;20025;-53
2022/02/22 10:35:58;;;;;;;20.85;3.97;;;;;;;7.15;72.29;99703.34;5037225;28;20131;-53
2022/02/22 10:38:25;;;;;;;17.90;4.53;;;;;;;7.25;72.43;99707.22;5039746;28;20040;-54
2022/02/22 10:41:06;;;;;;;21.20;3.88;;;;;;;7.27;73.37;99704.34;5035271;28;20295;-52
2022/02/22 10:43:36;;;;;;;23.50;4.68;;;;;;;7.50;71.85;99702.00;5029444;28;20119;-53
2022/02/22 10:46:03;;;;;;;13.68;3.75;;;;;;;7.45;71.18;99696.47;5031479;28;20056;-55
2022/02/22 10:48:33;;;;;;;18.25;3.50;;;;;;;7.08;71.93;99693.50;5038399;28;20032;-55
2022/02/22 10:51:00;;;;;;;20.60;4.13;;;;;;;7.05;73.39;99690.44;5028378;28;20041;-54
2022/02/22 10:53:39;;;;;;;21.92;4.43;;;;;;;6.93;73.82;99684.09;5040064;28;20053;-55
2022/02/22 10:56:07;;;;;;;16.48;4.13;;;;;;;7.02;73.62;99690.88;5028729;28;20033;-56
2022/02/22 10:58:32;;;;;;;13.13;3.92;;;;;;;7.23;73.43;99682.59;5029336;28;20542;-53
2022/02/22 11:00:58;;;;;;;26.10;4.30;;;;;;;7.20;73.64;99698.22;5034906;28;20054;-54
2022/02/22 11:03:23;;;;;;;24.88;4.07;;;;;;;7.26;72.83;99695.53;5034038;28;20071;-53
2022/02/22 11:05:49;;;;;;;24.90;4.85;;;;;;;7.31;73.82;99705.53;5029046;28;20120;-56
2022/02/22 11:08:15;;;;;;;16.73;4.78;;;;;;;7.38;73.36;99706.34;5040867;28;20448;-53
2022/02/22 11:10:45;;;;;;;23.73;4.95;;;;;;;7.24;73.69;99710.06;5020104;28;20044;-53
2022/02/22 11:13:11;;;;;;;23.65;4.68;;;;;;;7.26;73.15;99721.34;5049156;28;20051;-56
2022/02/22 11:15:37;;;;;;;19.02;4.75;;;;;;;7.06;73.90;99706.25;5025792;28;20518;-53
2022/02/22 11:18:17;;;;;;;18.63;4.97;;;;;;;7.02;74.38;99722.84;5028949;28;20034;-53
2022/02/22 11:20:42;;;;;;;17.23;4.78;;;;;;;7.36;74.01;99719.06;5025969;28;20099;-54
2022/02/22 11:23:09;;;;;;;24.35;4.88;;;;;;;7.17;74.90;99717.28;5031860;28;20427;-54
2022/02/22 11:25:36;;;;;;;20.20;5.82;;;;;;;7.05;74.99;99712.59;5033333;28;20733;-53
2022/02/22 11:28:09;;;;;;;24.27;5.85;;;;;;;6.94;75.33;99699.91;5035324;28;20056;-53